sensor_id;sensor_type;location;lat;lon;timestamp;temperature;humidity
51011;DHT22;37038;50.182;8.624;2022-08-01T00:00:47;22.20;99.90
51011;DHT22;37038;50.182;8.624;2022-08-01T00:03:35;22.10;99.90
51011;DHT22;37038;50.182;8.624;2022-08-01T00:06:23;22.00;99.90
51011;DHT22;37038;50.182;8.624;2022-08-01T00:09:11;21.90;99.90
51011;DHT22;37038;50.182;8.624;2022-08-01T00:12:10;21.80;99.90
51011;DHT22;37038;50.182;8.624;2022-08-01T00:14:59;21.80;99.90
51011;DHT22;37038;50.182;8.624;2022-08-01T00:17:47;21.80;99.90
51011;DHT22;37038;50.182;8.624;2022-08-01T00:20:34;21.80;99.90
51011;DHT22;37038;50.182;8.624;2022-08-01T00:23:22;21.70;99.90
51011;DHT22;37038;50.182;8.624;2022-08-01T00:26:10;21.70;99.90
51011;DHT22;37038;50.182;8.624;2022-08-01T00:29:01;21.70;99.90
51011;DHT22;37038;50.182;8.624;2022-08-01T00:31:57;21.60;99.90
51011;DHT22;37038;50.182;8.624;2022-08-01T00:34:45;21.60;99.90
51011;DHT22;37038;50.182;8.624;2022-08-01T00:37:33;21.50;99.90
51011;DHT22;37038;50.182;8.624;2022-08-01T00:40:21;21.50;99.90
51011;DHT22;37038;50.182;8.624;2022-08-01T00:43:09;21.40;99.90
51011;DHT22;37038;50.182;8.624;2022-08-01T00:45:57;21.30;99.90
51011;DHT22;37038;50.182;8.624;2022-08-01T00:48:45;21.20;99.90
51011;DHT22;37038;50.182;8.624;2022-08-01T00:51:33;21.10;99.90
51011;DHT22;37038;50.182;8.624;2022-08-01T00:54:23;21.10;99.90
51011;DHT22;37038;50.182;8.624;2022-08-01T00:57:12;21.10;99.90
51011;DHT22;37038;50.182;8.624;2022-08-01T01:00:02;21.10;99.90
51011;DHT22;37038;50.182;8.624;2022-08-01T01:02:51;21.10;99.90
51011;DHT22;37038;50.182;8.624;2022-08-01T01:06:34;21.10;99.90
51011;DHT22;37038;50.182;8.624;2022-08-01T01:12:55;20.90;99.90
51011;DHT22;37038;50.182;8.624;2022-08-01T01:15:58;21.00;99.90
51011;DHT22;37038;50.182;8.624;2022-08-01T01:18:51;21.00;99.90
51011;DHT22;37038;50.182;8.624;2022-08-01T01:31:00;20.70;99.90
51011;DHT22;37038;50.182;8.624;2022-08-01T01:33:51;20.70;99.90
51011;DHT22;37038;50.182;8.624;2022-08-01T01:36:42;20.60;99.90
51011;DHT22;37038;50.182;8.624;2022-08-01T01:39:32;20.60;99.90
51011;DHT22;37038;50.182;8.624;2022-08-01T01:42:25;20.50;99.90
51011;DHT22;37038;50.182;8.624;2022-08-01T01:45:14;20.60;99.90
51011;DHT22;37038;50.182;8.624;2022-08-01T01:48:04;20.50;99.90
51011;DHT22;37038;50.182;8.624;2022-08-01T01:50:53;20.50;99.90
51011;DHT22;37038;50.182;8.624;2022-08-01T01:53:45;20.50;99.90
51011;DHT22;37038;50.182;8.624;2022-08-01T01:56:33;20.40;99.90
51011;DHT22;37038;50.182;8.624;2022-08-01T01:59:26;20.30;99.90
51011;DHT22;37038;50.182;8.624;2022-08-01T02:02:17;20.30;99.90
51011;DHT22;37038;50.182;8.624;2022-08-01T02:05:09;20.30;99.90
51011;DHT22;37038;50.182;8.624;2022-08-01T02:07:58;20.30;99.90
51011;DHT22;37038;50.182;8.624;2022-08-01T02:10:46;20.20;99.90
51011;DHT22;37038;50.182;8.624;2022-08-01T02:13:59;20.20;99.90
51011;DHT22;37038;50.182;8.624;2022-08-01T02:16:49;20.20;99.90
51011;DHT22;37038;50.182;8.624;2022-08-01T02:19:39;20.30;99.90
51011;DHT22;37038;50.182;8.624;2022-08-01T02:22:32;20.30;99.90
51011;DHT22;37038;50.182;8.624;2022-08-01T02:25:25;20.40;99.90
51011;DHT22;37038;50.182;8.624;2022-08-01T02:28:20;20.40;99.90
51011;DHT22;37038;50.182;8.624;2022-08-01T02:31:18;20.50;99.90
51011;DHT22;37038;50.182;8.624;2022-08-01T02:34:10;20.60;99.90
51011;DHT22;37038;50.182;8.624;2022-08-01T02:37:00;20.60;99.90
51011;DHT22;37038;50.182;8.624;2022-08-01T02:39:51;20.60;99.90
51011;DHT22;37038;50.182;8.624;2022-08-01T02:42:44;20.60;99.90
51011;DHT22;37038;50.182;8.624;2022-08-01T02:45:35;20.60;99.90
51011;DHT22;37038;50.182;8.624;2022-08-01T02:48:25;20.50;99.90
51011;DHT22;37038;50.182;8.624;2022-08-01T02:51:14;20.50;99.90
51011;DHT22;37038;50.182;8.624;2022-08-01T02:54:05;20.50;99.90
51011;DHT22;37038;50.182;8.624;2022-08-01T02:56:55;20.40;99.90
51011;DHT22;37038;50.182;8.624;2022-08-01T02:59:46;20.30;99.90
51011;DHT22;37038;50.182;8.624;2022-08-01T03:02:35;20.20;99.90
51011;DHT22;37038;50.182;8.624;2022-08-01T03:05:24;20.10;99.90
51011;DHT22;37038;50.182;8.624;2022-08-01T03:08:13;19.90;99.90
51011;DHT22;37038;50.182;8.624;2022-08-01T03:11:02;19.90;99.90
51011;DHT22;37038;50.182;8.624;2022-08-01T03:13:52;19.80;99.90
51011;DHT22;37038;50.182;8.624;2022-08-01T03:16:42;19.80;99.90
51011;DHT22;37038;50.182;8.624;2022-08-01T03:19:33;19.80;99.90
51011;DHT22;37038;50.182;8.624;2022-08-01T03:22:23;19.80;99.90
51011;DHT22;37038;50.182;8.624;2022-08-01T03:25:13;19.90;99.90
51011;DHT22;37038;50.182;8.624;2022-08-01T03:28:04;19.90;99.90
51011;DHT22;37038;50.182;8.624;2022-08-01T03:30:53;19.90;99.90
51011;DHT22;37038;50.182;8.624;2022-08-01T03:33:41;19.90;99.90
51011;DHT22;37038;50.182;8.624;2022-08-01T03:36:31;19.90;99.90
51011;DHT22;37038;50.182;8.624;2022-08-01T03:39:22;19.90;99.90
51011;DHT22;37038;50.182;8.624;2022-08-01T03:42:17;19.90;99.90
51011;DHT22;37038;50.182;8.624;2022-08-01T03:45:11;20.00;99.90
51011;DHT22;37038;50.182;8.624;2022-08-01T03:48:06;20.00;99.90
51011;DHT22;37038;50.182;8.624;2022-08-01T03:51:00;20.00;99.90
51011;DHT22;37038;50.182;8.624;2022-08-01T03:53:50;20.00;99.90
51011;DHT22;37038;50.182;8.624;2022-08-01T03:56:39;20.00;99.90
51011;DHT22;37038;50.182;8.624;2022-08-01T03:59:30;20.00;99.90
51011;DHT22;37038;50.182;8.624;2022-08-01T04:02:19;20.00;99.90
51011;DHT22;37038;50.182;8.624;2022-08-01T04:05:09;20.00;99.90
51011;DHT22;37038;50.182;8.624;2022-08-01T04:07:57;20.00;99.90
51011;DHT22;37038;50.182;8.624;2022-08-01T04:10:46;20.00;99.90
51011;DHT22;37038;50.182;8.624;2022-08-01T04:13:36;20.00;99.90
51011;DHT22;37038;50.182;8.624;2022-08-01T04:16:25;20.00;99.90
51011;DHT22;37038;50.182;8.624;2022-08-01T04:19:13;20.00;99.90
51011;DHT22;37038;50.182;8.624;2022-08-01T04:22:01;20.00;99.90
51011;DHT22;37038;50.182;8.624;2022-08-01T04:24:53;19.90;99.90
51011;DHT22;37038;50.182;8.624;2022-08-01T04:27:46;19.90;99.90
51011;DHT22;37038;50.182;8.624;2022-08-01T04:30:38;19.80;99.90
51011;DHT22;37038;50.182;8.624;2022-08-01T04:33:28;19.90;99.90
51011;DHT22;37038;50.182;8.624;2022-08-01T04:36:19;19.90;99.90
51011;DHT22;37038;50.182;8.624;2022-08-01T04:39:10;19.90;99.90
51011;DHT22;37038;50.182;8.624;2022-08-01T04:41:59;19.90;99.90
51011;DHT22;37038;50.182;8.624;2022-08-01T04:44:51;19.90;99.90
51011;DHT22;37038;50.182;8.624;2022-08-01T04:47:39;19.90;99.90
51011;DHT22;37038;50.182;8.624;2022-08-01T04:50:28;19.90;99.90
51011;DHT22;37038;50.182;8.624;2022-08-01T04:53:17;20.00;99.90
51011;DHT22;37038;50.182;8.624;2022-08-01T04:56:06;20.00;99.90
51011;DHT22;37038;50.182;8.624;2022-08-01T04:58:54;20.00;99.90
51011;DHT22;37038;50.182;8.624;2022-08-01T05:02:16;20.00;99.90
51011;DHT22;37038;50.182;8.624;2022-08-01T05:05:05;19.90;99.90
51011;DHT22;37038;50.182;8.624;2022-08-01T05:07:53;20.00;99.90
51011;DHT22;37038;50.182;8.624;2022-08-01T05:10:41;20.00;99.90
51011;DHT22;37038;50.182;8.624;2022-08-01T05:13:29;20.00;99.90
51011;DHT22;37038;50.182;8.624;2022-08-01T05:16:17;20.00;99.90
51011;DHT22;37038;50.182;8.624;2022-08-01T05:19:05;20.00;99.90
51011;DHT22;37038;50.182;8.624;2022-08-01T05:21:55;20.00;99.90
51011;DHT22;37038;50.182;8.624;2022-08-01T05:24:46;20.00;99.90
51011;DHT22;37038;50.182;8.624;2022-08-01T05:27:36;20.10;99.90
51011;DHT22;37038;50.182;8.624;2022-08-01T05:30:26;20.10;99.90
51011;DHT22;37038;50.182;8.624;2022-08-01T05:33:14;20.20;99.90
51011;DHT22;37038;50.182;8.624;2022-08-01T05:36:02;20.20;99.90
51011;DHT22;37038;50.182;8.624;2022-08-01T05:38:51;20.20;99.90
51011;DHT22;37038;50.182;8.624;2022-08-01T05:41:40;20.30;99.90
51011;DHT22;37038;50.182;8.624;2022-08-01T05:44:29;20.40;99.90
51011;DHT22;37038;50.182;8.624;2022-08-01T05:47:17;20.50;99.90
51011;DHT22;37038;50.182;8.624;2022-08-01T05:50:05;20.60;99.90
51011;DHT22;37038;50.182;8.624;2022-08-01T05:52:53;20.70;99.90
51011;DHT22;37038;50.182;8.624;2022-08-01T05:55:41;20.70;99.90
51011;DHT22;37038;50.182;8.624;2022-08-01T05:58:29;20.80;99.90
51011;DHT22;37038;50.182;8.624;2022-08-01T06:01:18;21.00;99.90
51011;DHT22;37038;50.182;8.624;2022-08-01T06:04:06;21.00;99.90
51011;DHT22;37038;50.182;8.624;2022-08-01T06:06:54;21.10;99.90
51011;DHT22;37038;50.182;8.624;2022-08-01T06:09:42;21.10;99.90
51011;DHT22;37038;50.182;8.624;2022-08-01T06:12:32;21.20;99.90
51011;DHT22;37038;50.182;8.624;2022-08-01T06:15:22;21.20;99.90
51011;DHT22;37038;50.182;8.624;2022-08-01T06:18:10;21.30;99.90
51011;DHT22;37038;50.182;8.624;2022-08-01T06:20:57;21.40;99.90
51011;DHT22;37038;50.182;8.624;2022-08-01T06:23:45;21.60;99.90
51011;DHT22;37038;50.182;8.624;2022-08-01T06:26:33;21.70;99.90
51011;DHT22;37038;50.182;8.624;2022-08-01T06:29:22;21.90;99.90
51011;DHT22;37038;50.182;8.624;2022-08-01T06:32:10;22.10;99.90
51011;DHT22;37038;50.182;8.624;2022-08-01T06:35:16;22.20;99.90
51011;DHT22;37038;50.182;8.624;2022-08-01T06:38:04;22.30;99.90
51011;DHT22;37038;50.182;8.624;2022-08-01T06:40:52;22.40;99.90
51011;DHT22;37038;50.182;8.624;2022-08-01T06:43:40;22.50;99.90
51011;DHT22;37038;50.182;8.624;2022-08-01T06:46:28;22.60;99.90
51011;DHT22;37038;50.182;8.624;2022-08-01T06:49:19;22.70;99.90
51011;DHT22;37038;50.182;8.624;2022-08-01T06:52:07;22.70;99.90
51011;DHT22;37038;50.182;8.624;2022-08-01T06:54:56;22.70;99.90
51011;DHT22;37038;50.182;8.624;2022-08-01T06:57:51;22.80;99.90
51011;DHT22;37038;50.182;8.624;2022-08-01T07:00:39;23.00;99.90
51011;DHT22;37038;50.182;8.624;2022-08-01T07:03:29;23.10;99.90
51011;DHT22;37038;50.182;8.624;2022-08-01T07:06:37;23.10;99.90
51011;DHT22;37038;50.182;8.624;2022-08-01T07:09:26;23.00;99.90
51011;DHT22;37038;50.182;8.624;2022-08-01T07:12:14;22.90;99.90
51011;DHT22;37038;50.182;8.624;2022-08-01T07:15:04;23.00;99.90
51011;DHT22;37038;50.182;8.624;2022-08-01T07:17:52;23.60;99.90
51011;DHT22;37038;50.182;8.624;2022-08-01T07:20:40;24.50;99.90
51011;DHT22;37038;50.182;8.624;2022-08-01T07:23:39;25.50;99.90
51011;DHT22;37038;50.182;8.624;2022-08-01T07:26:32;26.20;99.90
51011;DHT22;37038;50.182;8.624;2022-08-01T07:29:24;26.00;99.90
51011;DHT22;37038;50.182;8.624;2022-08-01T07:32:12;25.50;99.90
51011;DHT22;37038;50.182;8.624;2022-08-01T07:35:01;25.00;99.90
51011;DHT22;37038;50.182;8.624;2022-08-01T07:37:49;24.80;99.90
51011;DHT22;37038;50.182;8.624;2022-08-01T07:40:37;24.90;99.90
51011;DHT22;37038;50.182;8.624;2022-08-01T07:43:25;25.00;99.90
51011;DHT22;37038;50.182;8.624;2022-08-01T07:46:13;25.40;99.90
51011;DHT22;37038;50.182;8.624;2022-08-01T07:49:01;25.80;99.90
51011;DHT22;37038;50.182;8.624;2022-08-01T07:51:52;26.30;99.90
51011;DHT22;37038;50.182;8.624;2022-08-01T07:54:50;26.50;99.90
51011;DHT22;37038;50.182;8.624;2022-08-01T07:57:38;26.60;99.90
51011;DHT22;37038;50.182;8.624;2022-08-01T08:00:26;26.70;99.90
51011;DHT22;37038;50.182;8.624;2022-08-01T08:03:15;26.80;99.90
51011;DHT22;37038;50.182;8.624;2022-08-01T08:06:03;26.60;99.90
51011;DHT22;37038;50.182;8.624;2022-08-01T08:08:54;26.20;99.90
51011;DHT22;37038;50.182;8.624;2022-08-01T08:11:48;25.90;99.90
51011;DHT22;37038;50.182;8.624;2022-08-01T08:14:36;25.70;99.90
51011;DHT22;37038;50.182;8.624;2022-08-01T08:17:25;25.70;99.90
51011;DHT22;37038;50.182;8.624;2022-08-01T08:20:13;25.80;99.90
51011;DHT22;37038;50.182;8.624;2022-08-01T08:23:03;25.90;99.90
51011;DHT22;37038;50.182;8.624;2022-08-01T08:26:29;26.20;99.90
51011;DHT22;37038;50.182;8.624;2022-08-01T08:29:20;26.30;99.90
51011;DHT22;37038;50.182;8.624;2022-08-01T08:32:09;26.30;99.90
51011;DHT22;37038;50.182;8.624;2022-08-01T08:34:57;26.30;99.90
51011;DHT22;37038;50.182;8.624;2022-08-01T08:37:48;26.00;99.90
51011;DHT22;37038;50.182;8.624;2022-08-01T08:40:36;25.60;99.90
51011;DHT22;37038;50.182;8.624;2022-08-01T08:43:26;25.40;99.90
51011;DHT22;37038;50.182;8.624;2022-08-01T08:46:14;25.00;99.90
51011;DHT22;37038;50.182;8.624;2022-08-01T08:49:03;24.90;99.90
51011;DHT22;37038;50.182;8.624;2022-08-01T08:51:53;24.90;99.90
51011;DHT22;37038;50.182;8.624;2022-08-01T08:54:46;25.20;99.90
51011;DHT22;37038;50.182;8.624;2022-08-01T08:57:34;25.50;99.90
51011;DHT22;37038;50.182;8.624;2022-08-01T09:00:23;25.80;99.90
51011;DHT22;37038;50.182;8.624;2022-08-01T09:03:12;25.80;99.90
51011;DHT22;37038;50.182;8.624;2022-08-01T09:06:00;25.90;99.90
51011;DHT22;37038;50.182;8.624;2022-08-01T09:08:48;26.10;99.90
51011;DHT22;37038;50.182;8.624;2022-08-01T09:11:36;26.30;99.90
51011;DHT22;37038;50.182;8.624;2022-08-01T09:14:26;26.40;99.90
51011;DHT22;37038;50.182;8.624;2022-08-01T09:17:17;26.30;99.90
51011;DHT22;37038;50.182;8.624;2022-08-01T09:20:22;26.30;99.90
51011;DHT22;37038;50.182;8.624;2022-08-01T09:26:41;26.20;99.90
51011;DHT22;37038;50.182;8.624;2022-08-01T09:29:31;26.30;99.90
51011;DHT22;37038;50.182;8.624;2022-08-01T09:32:24;26.90;99.90
51011;DHT22;37038;50.182;8.624;2022-08-01T09:35:26;27.80;99.90
51011;DHT22;37038;50.182;8.624;2022-08-01T09:38:23;28.70;99.90
51011;DHT22;37038;50.182;8.624;2022-08-01T09:41:19;29.70;99.90
51011;DHT22;37038;50.182;8.624;2022-08-01T09:47:43;31.10;99.90
51011;DHT22;37038;50.182;8.624;2022-08-01T09:50:41;31.50;99.90
51011;DHT22;37038;50.182;8.624;2022-08-01T09:53:43;32.00;99.90
51011;DHT22;37038;50.182;8.624;2022-08-01T09:56:44;32.60;99.90
51011;DHT22;37038;50.182;8.624;2022-08-01T09:59:39;32.90;99.60
51011;DHT22;37038;50.182;8.624;2022-08-01T10:02:49;32.60;99.90
51011;DHT22;37038;50.182;8.624;2022-08-01T10:05:59;32.40;97.80
51011;DHT22;37038;50.182;8.624;2022-08-01T10:09:00;33.00;95.40
51011;DHT22;37038;50.182;8.624;2022-08-01T10:11:55;32.60;98.20
51011;DHT22;37038;50.182;8.624;2022-08-01T10:14:49;31.90;97.50
51011;DHT22;37038;50.182;8.624;2022-08-01T10:17:56;31.10;97.90
51011;DHT22;37038;50.182;8.624;2022-08-01T10:20:48;30.30;98.40
51011;DHT22;37038;50.182;8.624;2022-08-01T10:23:36;29.60;98.90
51011;DHT22;37038;50.182;8.624;2022-08-01T10:26:29;29.00;99.20
51011;DHT22;37038;50.182;8.624;2022-08-01T10:29:26;28.30;99.90
51011;DHT22;37038;50.182;8.624;2022-08-01T10:32:35;27.90;99.90
51011;DHT22;37038;50.182;8.624;2022-08-01T10:35:26;27.80;99.90
51011;DHT22;37038;50.182;8.624;2022-08-01T10:38:39;28.60;99.90
51011;DHT22;37038;50.182;8.624;2022-08-01T10:41:33;29.40;99.90
51011;DHT22;37038;50.182;8.624;2022-08-01T10:44:25;29.30;99.90
51011;DHT22;37038;50.182;8.624;2022-08-01T10:50:54;29.30;99.90
51011;DHT22;37038;50.182;8.624;2022-08-01T10:53:50;28.90;99.90
51011;DHT22;37038;50.182;8.624;2022-08-01T10:56:48;28.60;99.90
51011;DHT22;37038;50.182;8.624;2022-08-01T10:59:50;28.50;99.90
51011;DHT22;37038;50.182;8.624;2022-08-01T11:02:59;28.70;99.90
51011;DHT22;37038;50.182;8.624;2022-08-01T11:05:51;28.90;99.90
51011;DHT22;37038;50.182;8.624;2022-08-01T11:08:51;28.90;99.90
51011;DHT22;37038;50.182;8.624;2022-08-01T11:18:01;28.60;99.90
51011;DHT22;37038;50.182;8.624;2022-08-01T11:21:01;28.60;99.90
51011;DHT22;37038;50.182;8.624;2022-08-01T11:24:09;28.50;99.90
51011;DHT22;37038;50.182;8.624;2022-08-01T11:33:02;28.90;99.90
51011;DHT22;37038;50.182;8.624;2022-08-01T11:42:17;29.90;98.80
51011;DHT22;37038;50.182;8.624;2022-08-01T11:45:11;29.60;98.70
51011;DHT22;37038;50.182;8.624;2022-08-01T11:48:17;29.40;99.90
51011;DHT22;37038;50.182;8.624;2022-08-01T11:51:15;29.30;98.80
51011;DHT22;37038;50.182;8.624;2022-08-01T11:54:15;29.30;99.90
51011;DHT22;37038;50.182;8.624;2022-08-01T11:57:25;29.30;98.30
51011;DHT22;37038;50.182;8.624;2022-08-01T12:00:21;29.20;97.60
51011;DHT22;37038;50.182;8.624;2022-08-01T12:03:10;29.10;99.90
51011;DHT22;37038;50.182;8.624;2022-08-01T12:06:11;28.90;98.40
51011;DHT22;37038;50.182;8.624;2022-08-01T12:09:21;28.80;98.20
51011;DHT22;37038;50.182;8.624;2022-08-01T12:12:11;28.50;97.60
51011;DHT22;37038;50.182;8.624;2022-08-01T12:15:07;28.10;99.90
51011;DHT22;37038;50.182;8.624;2022-08-01T12:18:05;28.20;99.50
51011;DHT22;37038;50.182;8.624;2022-08-01T12:21:02;28.30;99.10
51011;DHT22;37038;50.182;8.624;2022-08-01T12:24:01;28.40;99.20
51011;DHT22;37038;50.182;8.624;2022-08-01T12:26:51;28.50;98.90
51011;DHT22;37038;50.182;8.624;2022-08-01T12:29:42;28.60;98.90
51011;DHT22;37038;50.182;8.624;2022-08-01T12:32:36;28.90;98.50
51011;DHT22;37038;50.182;8.624;2022-08-01T12:35:29;29.10;98.20
51011;DHT22;37038;50.182;8.624;2022-08-01T12:38:19;29.10;98.00
51011;DHT22;37038;50.182;8.624;2022-08-01T12:41:10;29.20;98.70
51011;DHT22;37038;50.182;8.624;2022-08-01T12:44:01;29.30;98.00
51011;DHT22;37038;50.182;8.624;2022-08-01T12:46:52;29.20;97.40
51011;DHT22;37038;50.182;8.624;2022-08-01T12:49:42;29.10;97.00
51011;DHT22;37038;50.182;8.624;2022-08-01T12:52:33;29.00;97.60
51011;DHT22;37038;50.182;8.624;2022-08-01T12:55:23;29.00;97.50
51011;DHT22;37038;50.182;8.624;2022-08-01T12:58:21;29.00;97.80
51011;DHT22;37038;50.182;8.624;2022-08-01T13:01:16;28.90;97.20
51011;DHT22;37038;50.182;8.624;2022-08-01T13:04:15;28.70;97.40
51011;DHT22;37038;50.182;8.624;2022-08-01T13:07:03;28.50;97.40
51011;DHT22;37038;50.182;8.624;2022-08-01T13:09:52;28.40;98.40
51011;DHT22;37038;50.182;8.624;2022-08-01T13:12:51;28.20;98.30
51011;DHT22;37038;50.182;8.624;2022-08-01T13:15:42;28.00;98.70
51011;DHT22;37038;50.182;8.624;2022-08-01T13:18:32;27.90;98.30
51011;DHT22;37038;50.182;8.624;2022-08-01T13:21:30;27.80;98.60
51011;DHT22;37038;50.182;8.624;2022-08-01T13:24:40;27.70;99.90
51011;DHT22;37038;50.182;8.624;2022-08-01T13:27:28;27.70;99.30
51011;DHT22;37038;50.182;8.624;2022-08-01T13:30:19;27.70;99.50
51011;DHT22;37038;50.182;8.624;2022-08-01T13:33:07;27.80;99.30
51011;DHT22;37038;50.182;8.624;2022-08-01T13:35:56;28.00;99.90
51011;DHT22;37038;50.182;8.624;2022-08-01T13:38:44;28.20;98.60
51011;DHT22;37038;50.182;8.624;2022-08-01T13:41:51;28.40;98.60
51011;DHT22;37038;50.182;8.624;2022-08-01T13:44:40;28.60;98.50
51011;DHT22;37038;50.182;8.624;2022-08-01T13:47:29;28.80;98.50
51011;DHT22;37038;50.182;8.624;2022-08-01T13:50:19;28.80;97.40
51011;DHT22;37038;50.182;8.624;2022-08-01T13:53:07;28.80;97.30
51011;DHT22;37038;50.182;8.624;2022-08-01T13:55:55;28.80;95.80
51011;DHT22;37038;50.182;8.624;2022-08-01T13:58:43;28.80;96.80
51011;DHT22;37038;50.182;8.624;2022-08-01T14:01:31;28.60;96.00
51011;DHT22;37038;50.182;8.624;2022-08-01T14:04:21;28.40;95.80
51011;DHT22;37038;50.182;8.624;2022-08-01T14:07:16;28.30;97.40
51011;DHT22;37038;50.182;8.624;2022-08-01T14:10:16;28.10;97.30
51011;DHT22;37038;50.182;8.624;2022-08-01T14:13:16;28.10;97.60
51011;DHT22;37038;50.182;8.624;2022-08-01T14:16:10;28.00;97.90
51011;DHT22;37038;50.182;8.624;2022-08-01T14:18:58;28.00;98.50
51011;DHT22;37038;50.182;8.624;2022-08-01T14:21:46;28.10;98.00
51011;DHT22;37038;50.182;8.624;2022-08-01T14:24:34;28.20;98.40
51011;DHT22;37038;50.182;8.624;2022-08-01T14:27:25;28.40;98.00
51011;DHT22;37038;50.182;8.624;2022-08-01T14:30:15;28.60;98.30
51011;DHT22;37038;50.182;8.624;2022-08-01T14:33:03;28.60;98.40
51011;DHT22;37038;50.182;8.624;2022-08-01T14:35:54;28.50;98.00
51011;DHT22;37038;50.182;8.624;2022-08-01T14:38:52;28.60;98.30
51011;DHT22;37038;50.182;8.624;2022-08-01T14:41:46;28.60;98.20
51011;DHT22;37038;50.182;8.624;2022-08-01T14:44:34;28.50;97.90
51011;DHT22;37038;50.182;8.624;2022-08-01T14:47:32;28.40;96.60
51011;DHT22;37038;50.182;8.624;2022-08-01T14:50:20;28.20;96.50
51011;DHT22;37038;50.182;8.624;2022-08-01T14:53:08;28.00;97.60
51011;DHT22;37038;50.182;8.624;2022-08-01T14:55:58;28.00;97.60
51011;DHT22;37038;50.182;8.624;2022-08-01T14:58:46;28.10;98.10
51011;DHT22;37038;50.182;8.624;2022-08-01T15:01:35;28.20;98.30
51011;DHT22;37038;50.182;8.624;2022-08-01T15:04:23;28.40;98.50
51011;DHT22;37038;50.182;8.624;2022-08-01T15:07:11;28.40;98.00
51011;DHT22;37038;50.182;8.624;2022-08-01T15:09:59;28.40;97.30
51011;DHT22;37038;50.182;8.624;2022-08-01T15:12:49;28.30;96.90
51011;DHT22;37038;50.182;8.624;2022-08-01T15:15:37;28.20;97.20
51011;DHT22;37038;50.182;8.624;2022-08-01T15:18:26;28.10;95.50
51011;DHT22;37038;50.182;8.624;2022-08-01T15:21:20;28.00;95.90
51011;DHT22;37038;50.182;8.624;2022-08-01T15:24:30;27.90;96.50
51011;DHT22;37038;50.182;8.624;2022-08-01T15:27:18;27.90;96.20
51011;DHT22;37038;50.182;8.624;2022-08-01T15:30:06;27.90;96.20
51011;DHT22;37038;50.182;8.624;2022-08-01T15:32:55;27.60;96.00
51011;DHT22;37038;50.182;8.624;2022-08-01T15:35:42;27.40;96.40
51011;DHT22;37038;50.182;8.624;2022-08-01T15:38:31;27.30;96.80
51011;DHT22;37038;50.182;8.624;2022-08-01T15:41:22;27.10;97.80
51011;DHT22;37038;50.182;8.624;2022-08-01T15:44:11;27.00;97.80
51011;DHT22;37038;50.182;8.624;2022-08-01T15:47:02;26.90;98.20
51011;DHT22;37038;50.182;8.624;2022-08-01T15:49:51;26.80;98.00
51011;DHT22;37038;50.182;8.624;2022-08-01T15:52:39;26.80;99.10
51011;DHT22;37038;50.182;8.624;2022-08-01T15:55:27;26.80;99.30
51011;DHT22;37038;50.182;8.624;2022-08-01T15:58:15;26.80;98.40
51011;DHT22;37038;50.182;8.624;2022-08-01T16:01:02;26.80;98.70
51011;DHT22;37038;50.182;8.624;2022-08-01T16:03:51;26.80;98.50
51011;DHT22;37038;50.182;8.624;2022-08-01T16:06:44;26.90;97.80
51011;DHT22;37038;50.182;8.624;2022-08-01T16:09:32;26.90;97.80
51011;DHT22;37038;50.182;8.624;2022-08-01T16:12:22;27.00;98.00
51011;DHT22;37038;50.182;8.624;2022-08-01T16:15:10;27.10;97.60
51011;DHT22;37038;50.182;8.624;2022-08-01T16:17:58;27.10;97.10
51011;DHT22;37038;50.182;8.624;2022-08-01T16:20:48;27.10;96.40
51011;DHT22;37038;50.182;8.624;2022-08-01T16:23:38;27.10;95.90
51011;DHT22;37038;50.182;8.624;2022-08-01T16:26:26;27.10;96.00
51011;DHT22;37038;50.182;8.624;2022-08-01T16:29:14;27.10;95.80
51011;DHT22;37038;50.182;8.624;2022-08-01T16:32:02;27.00;95.70
51011;DHT22;37038;50.182;8.624;2022-08-01T16:35:10;27.00;96.00
51011;DHT22;37038;50.182;8.624;2022-08-01T16:37:59;27.00;96.30
51011;DHT22;37038;50.182;8.624;2022-08-01T16:40:48;26.80;96.30
51011;DHT22;37038;50.182;8.624;2022-08-01T16:43:37;26.70;96.20
51011;DHT22;37038;50.182;8.624;2022-08-01T16:46:32;26.50;97.00
51011;DHT22;37038;50.182;8.624;2022-08-01T16:49:20;26.40;97.00
51011;DHT22;37038;50.182;8.624;2022-08-01T16:52:08;26.30;97.80
51011;DHT22;37038;50.182;8.624;2022-08-01T16:54:56;26.20;98.20
51011;DHT22;37038;50.182;8.624;2022-08-01T16:57:44;26.10;98.60
51011;DHT22;37038;50.182;8.624;2022-08-01T17:00:32;26.10;99.10
51011;DHT22;37038;50.182;8.624;2022-08-01T17:03:21;26.00;99.00
51011;DHT22;37038;50.182;8.624;2022-08-01T17:06:30;25.90;99.30
51011;DHT22;37038;50.182;8.624;2022-08-01T17:09:18;25.80;99.50
51011;DHT22;37038;50.182;8.624;2022-08-01T17:12:06;25.70;99.90
51011;DHT22;37038;50.182;8.624;2022-08-01T17:14:54;25.70;99.80
51011;DHT22;37038;50.182;8.624;2022-08-01T17:17:42;25.70;99.90
51011;DHT22;37038;50.182;8.624;2022-08-01T17:20:30;25.60;99.90
51011;DHT22;37038;50.182;8.624;2022-08-01T17:23:18;25.60;99.90
51011;DHT22;37038;50.182;8.624;2022-08-01T17:26:06;25.60;99.90
51011;DHT22;37038;50.182;8.624;2022-08-01T17:28:54;25.60;99.90
51011;DHT22;37038;50.182;8.624;2022-08-01T17:31:42;25.70;99.90
51011;DHT22;37038;50.182;8.624;2022-08-01T17:34:30;25.70;99.90
51011;DHT22;37038;50.182;8.624;2022-08-01T17:37:17;25.70;99.90
51011;DHT22;37038;50.182;8.624;2022-08-01T17:40:06;25.70;99.90
51011;DHT22;37038;50.182;8.624;2022-08-01T17:43:14;25.60;99.90
51011;DHT22;37038;50.182;8.624;2022-08-01T17:46:02;25.60;99.90
51011;DHT22;37038;50.182;8.624;2022-08-01T17:48:50;25.50;99.90
51011;DHT22;37038;50.182;8.624;2022-08-01T17:51:38;25.40;99.90
51011;DHT22;37038;50.182;8.624;2022-08-01T17:54:28;25.40;99.90
51011;DHT22;37038;50.182;8.624;2022-08-01T17:57:16;25.30;99.90
51011;DHT22;37038;50.182;8.624;2022-08-01T18:00:06;25.20;99.90
51011;DHT22;37038;50.182;8.624;2022-08-01T18:02:54;25.10;99.90
51011;DHT22;37038;50.182;8.624;2022-08-01T18:05:42;25.10;99.90
51011;DHT22;37038;50.182;8.624;2022-08-01T18:08:30;25.00;99.90
51011;DHT22;37038;50.182;8.624;2022-08-01T18:11:18;25.00;99.90
51011;DHT22;37038;50.182;8.624;2022-08-01T18:14:07;24.90;99.90
51011;DHT22;37038;50.182;8.624;2022-08-01T18:16:55;24.90;99.90
51011;DHT22;37038;50.182;8.624;2022-08-01T18:19:43;24.80;99.90
51011;DHT22;37038;50.182;8.624;2022-08-01T18:22:33;24.80;99.90
51011;DHT22;37038;50.182;8.624;2022-08-01T18:25:21;24.70;99.90
51011;DHT22;37038;50.182;8.624;2022-08-01T18:28:10;24.60;99.90
51011;DHT22;37038;50.182;8.624;2022-08-01T18:31:20;24.50;99.90
51011;DHT22;37038;50.182;8.624;2022-08-01T18:34:08;24.40;99.90
51011;DHT22;37038;50.182;8.624;2022-08-01T18:36:56;24.40;99.90
51011;DHT22;37038;50.182;8.624;2022-08-01T18:39:44;24.30;99.90
51011;DHT22;37038;50.182;8.624;2022-08-01T18:42:32;24.20;99.90
51011;DHT22;37038;50.182;8.624;2022-08-01T18:45:20;24.20;99.90